createdAt,value
2023-02-13T00:00:56.378Z,6.69
2023-02-13T00:03:00.156Z,6.69
2023-02-13T00:05:03.700Z,6.70
2023-02-13T00:07:07.238Z,6.73
2023-02-13T00:09:11.364Z,6.74
2023-02-13T00:11:14.979Z,6.73
2023-02-13T00:13:18.557Z,6.71
2023-02-13T00:15:23.590Z,6.68
2023-02-13T00:17:26.592Z,6.65
2023-02-13T00:19:30.318Z,6.66
2023-02-13T00:21:33.957Z,6.69
2023-02-13T00:23:38.654Z,6.69
2023-02-13T00:25:42.041Z,6.70
2023-02-13T00:27:45.535Z,6.70
2023-02-13T00:29:49.351Z,6.64
2023-02-13T00:31:54.598Z,6.57
2023-02-13T00:33:58.872Z,6.52
2023-02-13T00:36:05.819Z,6.46
2023-02-13T00:38:09.325Z,6.47
2023-02-13T00:40:13.882Z,6.46
2023-02-13T00:42:17.484Z,6.47
2023-02-13T00:44:21.984Z,6.49
2023-02-13T00:46:25.638Z,6.51
2023-02-13T00:48:32.908Z,6.52
2023-02-13T00:50:36.580Z,6.48
2023-02-13T00:52:39.973Z,6.42
2023-02-13T00:54:43.583Z,6.40
2023-02-13T00:56:46.813Z,6.39
2023-02-13T00:58:51.064Z,6.27
2023-02-13T01:00:56.350Z,6.17
2023-02-13T01:03:00.879Z,6.09
2023-02-13T01:05:05.902Z,6.07
2023-02-13T01:07:09.150Z,6.10
2023-02-13T01:09:12.805Z,6.18
2023-02-13T01:11:17.004Z,6.28
2023-02-13T01:13:20.598Z,6.36
2023-02-13T01:15:24.435Z,6.40
2023-02-13T01:17:27.912Z,6.41
2023-02-13T01:19:32.842Z,6.42
2023-02-13T01:21:37.589Z,6.45
2023-02-13T01:23:41.051Z,6.44
2023-02-13T01:25:44.504Z,6.46
2023-02-13T01:27:47.756Z,6.38
2023-02-13T01:29:53.153Z,6.35
2023-02-13T01:31:56.478Z,6.37
2023-02-13T01:34:03.718Z,6.38
2023-02-13T01:36:09.277Z,6.39
2023-02-13T01:38:15.779Z,6.39
2023-02-13T01:40:19.356Z,6.38
2023-02-13T01:42:26.173Z,6.38
2023-02-13T01:44:48.523Z,6.40
2023-02-13T01:46:52.743Z,6.44
2023-02-13T01:49:00.561Z,6.49
2023-02-13T01:51:09.784Z,6.50
2023-02-13T01:53:19.728Z,6.51
2023-02-13T01:55:23.739Z,6.52
2023-02-13T01:57:29.818Z,6.54
2023-02-13T01:59:41.563Z,6.54
2023-02-13T02:01:46.341Z,6.54
2023-02-13T02:03:54.325Z,6.51
2023-02-13T02:05:59.341Z,6.41
2023-02-13T02:08:06.293Z,6.39
2023-02-13T02:10:18.392Z,6.38
2023-02-13T02:12:30.563Z,6.39
2023-02-13T02:14:33.957Z,6.43
2023-02-13T02:16:37.328Z,6.46
2023-02-13T02:18:41.149Z,6.50
2023-02-13T02:21:15.658Z,6.51
2023-02-13T02:23:49.816Z,6.53
2023-02-13T02:26:31.610Z,6.54
2023-02-13T02:29:08.709Z,6.55
2023-02-13T02:31:46.549Z,6.52
2023-02-13T02:34:04.345Z,6.44
2023-02-13T02:36:31.137Z,6.38
2023-02-13T02:38:52.086Z,6.35
2023-02-13T02:41:03.157Z,6.30
2023-02-13T02:43:25.545Z,6.23
2023-02-13T02:45:36.434Z,6.19
2023-02-13T02:48:08.636Z,6.15
2023-02-13T02:50:25.047Z,6.07
2023-02-13T02:52:40.821Z,6.01
2023-02-13T02:55:08.877Z,5.97
2023-02-13T02:57:26.238Z,5.93
2023-02-13T02:59:55.910Z,5.90
2023-02-13T03:02:17.839Z,5.75
2023-02-13T03:04:45.519Z,5.57
2023-02-13T03:06:53.118Z,5.55
2023-02-13T03:09:17.905Z,5.56
2023-02-13T03:11:46.891Z,5.58
2023-02-13T03:13:51.239Z,5.60
2023-02-13T03:16:17.923Z,5.62
2023-02-13T03:18:37.733Z,5.62
2023-02-13T03:21:05.519Z,5.71
2023-02-13T03:23:15.592Z,5.75
2023-02-13T03:25:30.448Z,5.75
2023-02-13T03:28:00.180Z,5.76
2023-02-13T03:30:08.865Z,5.78
2023-02-13T03:32:19.700Z,5.74
2023-02-13T03:34:47.089Z,5.75
2023-02-13T03:37:18.257Z,5.73
2023-02-13T03:39:25.159Z,5.61
2023-02-13T03:41:31.914Z,5.44
2023-02-13T03:43:51.254Z,5.43
2023-02-13T03:45:53.645Z,5.45
2023-02-13T03:48:09.718Z,5.47
2023-02-13T03:50:15.198Z,5.50
2023-02-13T03:52:26.108Z,5.52
2023-02-13T03:54:53.875Z,5.51
2023-02-13T03:57:14.782Z,5.48
2023-02-13T03:59:23.666Z,5.42
2023-02-13T04:01:31.580Z,5.38
2023-02-13T04:03:41.869Z,5.35
2023-02-13T04:05:49.741Z,5.34
2023-02-13T04:07:54.459Z,5.32
2023-02-13T04:10:00.008Z,5.29
2023-02-13T04:12:11.932Z,5.25
2023-02-13T04:14:20.368Z,5.20
2023-02-13T04:16:31.297Z,5.23
2023-02-13T04:18:36.296Z,5.22
2023-02-13T04:20:40.771Z,5.12
2023-02-13T04:22:44.948Z,5.00
2023-02-13T04:24:49.907Z,4.97
2023-02-13T04:26:55.107Z,4.93
2023-02-13T04:28:58.092Z,4.93
2023-02-13T04:31:01.915Z,5.04
2023-02-13T04:33:05.635Z,5.09
2023-02-13T04:35:09.496Z,5.11
2023-02-13T04:37:12.717Z,5.14
2023-02-13T04:39:16.071Z,5.12
2023-02-13T04:41:20.726Z,5.11
2023-02-13T04:43:25.413Z,5.09
2023-02-13T04:45:28.710Z,4.95
2023-02-13T04:47:32.094Z,4.92
2023-02-13T04:49:35.414Z,4.88
2023-02-13T04:51:39.041Z,4.70
2023-02-13T04:53:42.318Z,4.68
2023-02-13T04:55:45.601Z,4.67
2023-02-13T04:57:50.358Z,4.69
2023-02-13T04:59:53.590Z,4.78
2023-02-13T05:01:56.808Z,4.83
2023-02-13T05:04:00.152Z,4.87
2023-02-13T05:06:03.434Z,4.89
2023-02-13T05:08:07.456Z,4.91
2023-02-13T05:10:12.192Z,4.91
2023-02-13T05:12:15.428Z,4.96
2023-02-13T05:14:20.500Z,5.07
2023-02-13T05:16:23.842Z,5.23
2023-02-13T05:18:27.067Z,5.39
2023-02-13T05:20:30.385Z,5.52
2023-02-13T05:22:50.791Z,5.56
2023-02-13T05:24:54.025Z,5.63
2023-02-13T05:26:57.361Z,5.70
2023-02-13T05:29:18.318Z,5.79
2023-02-13T05:31:23.076Z,5.87
2023-02-13T05:33:26.653Z,5.90
2023-02-13T05:35:29.987Z,5.95
2023-02-13T05:37:33.255Z,5.95
2023-02-13T05:39:36.559Z,5.97
2023-02-13T05:41:39.775Z,5.99
2023-02-13T05:43:43.033Z,6.01
2023-02-13T05:45:46.323Z,6.04
2023-02-13T05:47:51.032Z,6.05
2023-02-13T05:49:54.249Z,6.08
2023-02-13T05:51:57.624Z,6.11
2023-02-13T05:54:00.874Z,6.14
2023-02-13T05:56:05.324Z,6.12
2023-02-13T05:58:09.645Z,6.16
2023-02-13T06:00:13.945Z,6.19
2023-02-13T06:02:17.186Z,6.17
2023-02-13T06:04:21.797Z,6.13
2023-02-13T06:06:25.580Z,6.05
2023-02-13T06:08:29.392Z,6.00
2023-02-13T06:10:32.771Z,5.95
2023-02-13T06:12:36.048Z,5.92
2023-02-13T06:14:39.253Z,5.89
2023-02-13T06:16:42.866Z,5.86
2023-02-13T06:18:46.057Z,5.87
2023-02-13T06:20:51.511Z,5.84
2023-02-13T06:22:55.239Z,5.81
2023-02-13T06:24:58.720Z,5.80
2023-02-13T06:27:01.935Z,5.80
2023-02-13T06:29:06.774Z,5.78
2023-02-13T06:31:10.182Z,5.76
2023-02-13T06:33:13.501Z,5.75
2023-02-13T06:35:17.688Z,5.77
2023-02-13T06:37:22.261Z,5.76
2023-02-13T06:39:25.462Z,5.76
2023-02-13T06:41:28.704Z,5.71
2023-02-13T06:43:32.141Z,5.68
2023-02-13T06:45:35.447Z,5.65
2023-02-13T06:47:42.718Z,5.65
2023-02-13T06:49:46.111Z,5.65
2023-02-13T06:51:49.468Z,5.64
2023-02-13T06:53:54.140Z,5.59
2023-02-13T06:55:58.035Z,5.58
2023-02-13T06:58:01.296Z,5.49
2023-02-13T07:00:06.025Z,5.43
2023-02-13T07:02:11.708Z,5.35
2023-02-13T07:04:15.170Z,5.34
2023-02-13T07:06:19.390Z,5.25
2023-02-13T07:08:22.621Z,5.22
2023-02-13T07:10:27.487Z,5.20
2023-02-13T07:12:30.872Z,5.19
2023-02-13T07:14:34.129Z,5.24
2023-02-13T07:16:37.471Z,5.30
2023-02-13T07:18:40.689Z,5.38
2023-02-13T07:20:43.934Z,5.41
2023-02-13T07:22:47.321Z,5.44
2023-02-13T07:24:50.546Z,5.46
2023-02-13T07:26:55.279Z,5.48
2023-02-13T07:29:10.502Z,5.51
2023-02-13T07:31:14.757Z,5.53
2023-02-13T07:33:18.411Z,5.54
2023-02-13T07:35:21.669Z,5.53
2023-02-13T07:37:24.989Z,5.49
2023-02-13T07:39:28.402Z,5.41
2023-02-13T07:41:31.706Z,5.33
2023-02-13T07:43:36.363Z,5.29
2023-02-13T07:45:40.030Z,5.29
2023-02-13T07:47:43.258Z,5.29
2023-02-13T07:49:46.514Z,5.30
2023-02-13T07:51:49.805Z,5.31
2023-02-13T07:53:53.309Z,5.24
2023-02-13T07:55:56.856Z,5.21
2023-02-13T07:58:02.175Z,5.24
2023-02-13T08:00:08.352Z,5.29
2023-02-13T08:02:15.860Z,5.35
2023-02-13T08:04:19.394Z,5.42
2023-02-13T08:06:23.396Z,5.45
2023-02-13T08:08:26.732Z,5.49
2023-02-13T08:10:47.396Z,5.51
2023-02-13T08:12:50.860Z,5.55
2023-02-13T08:14:58.457Z,5.49
2023-02-13T08:17:03.250Z,5.44
2023-02-13T08:19:06.478Z,5.43
2023-02-13T08:21:09.803Z,5.43
2023-02-13T08:23:13.424Z,5.38
2023-02-13T08:25:17.280Z,5.39
2023-02-13T08:27:20.777Z,5.45
2023-02-13T08:29:24.206Z,5.46
2023-02-13T08:31:27.964Z,5.42
2023-02-13T08:33:33.072Z,5.47
2023-02-13T08:35:36.469Z,5.54
2023-02-13T08:37:39.670Z,5.61
2023-02-13T08:39:42.985Z,5.70
2023-02-13T08:41:47.049Z,5.80
2023-02-13T08:43:50.321Z,5.89
2023-02-13T08:45:53.713Z,5.98
2023-02-13T08:47:58.664Z,6.08
2023-02-13T08:50:03.361Z,6.17
2023-02-13T08:52:06.969Z,6.26
2023-02-13T08:54:10.185Z,6.39
2023-02-13T08:56:13.623Z,6.50
2023-02-13T08:58:16.870Z,6.58
2023-02-13T09:00:21.025Z,6.66
2023-02-13T09:02:24.510Z,6.75
2023-02-13T09:04:28.137Z,6.84
2023-02-13T09:06:33.057Z,6.92
2023-02-13T09:08:37.253Z,7.04
2023-02-13T09:10:41.121Z,7.10
2023-02-13T09:12:44.431Z,7.17
2023-02-13T09:14:49.204Z,7.23
2023-02-13T09:16:52.446Z,7.36
2023-02-13T09:18:55.750Z,7.55
2023-02-13T09:21:00.998Z,7.71
2023-02-13T09:23:05.667Z,7.80
2023-02-13T09:25:09.518Z,7.85
2023-02-13T09:27:12.810Z,7.89
2023-02-13T09:29:16.182Z,7.92
2023-02-13T09:31:24.185Z,7.94
2023-02-13T09:33:28.017Z,7.90
2023-02-13T09:35:31.290Z,7.86
2023-02-13T09:37:34.515Z,7.85
2023-02-13T09:39:39.228Z,7.90
2023-02-13T09:41:45.610Z,7.95
2023-02-13T09:43:52.235Z,8.14
2023-02-13T09:46:00.109Z,8.32
2023-02-13T09:48:03.860Z,8.44
2023-02-13T09:50:13.442Z,8.60
2023-02-13T09:52:16.923Z,8.80
2023-02-13T09:54:20.276Z,9.00
2023-02-13T09:56:37.723Z,9.09
2023-02-13T09:58:43.309Z,9.14
2023-02-13T10:00:50.925Z,9.28
2023-02-13T10:03:27.201Z,9.49
2023-02-13T10:05:49.146Z,9.64
2023-02-13T10:08:01.516Z,9.71
2023-02-13T10:10:18.253Z,9.82
2023-02-13T10:12:34.992Z,9.96
2023-02-13T10:14:47.038Z,10.01
2023-02-13T10:16:54.883Z,10.06
2023-02-13T10:19:06.799Z,10.12
2023-02-13T10:21:11.507Z,10.22
2023-02-13T10:23:22.854Z,10.11
2023-02-13T10:25:29.414Z,10.05
2023-02-13T10:27:36.981Z,10.01
2023-02-13T10:30:02.612Z,10.06
2023-02-13T10:32:11.932Z,10.04
2023-02-13T10:34:18.520Z,10.02
2023-02-13T10:36:26.804Z,10.00
2023-02-13T10:38:32.603Z,10.04
2023-02-13T10:40:41.402Z,10.10
2023-02-13T10:42:47.756Z,10.23
2023-02-13T10:45:21.825Z,10.29
2023-02-13T10:47:41.536Z,10.34
2023-02-13T10:49:56.607Z,10.41
2023-02-13T10:52:11.386Z,10.52
2023-02-13T10:54:30.761Z,10.57
2023-02-13T10:56:40.227Z,10.57
2023-02-13T10:58:56.020Z,10.54
2023-02-13T11:01:08.148Z,10.29
2023-02-13T11:03:20.239Z,10.07
2023-02-13T11:05:26.791Z,9.90
2023-02-13T11:07:31.909Z,9.78
2023-02-13T11:09:41.174Z,9.60
2023-02-13T11:11:44.877Z,9.37
2023-02-13T11:14:09.963Z,9.14
2023-02-13T11:16:14.108Z,8.95
2023-02-13T11:18:22.202Z,8.81
2023-02-13T11:20:33.556Z,8.72
2023-02-13T11:22:39.763Z,8.66
2023-02-13T11:24:52.465Z,8.59
2023-02-13T11:27:01.290Z,8.48
2023-02-13T11:29:19.489Z,8.44
2023-02-13T11:31:29.605Z,8.39
2023-02-13T11:33:32.997Z,8.36
2023-02-13T11:35:38.203Z,8.32
2023-02-13T11:37:41.440Z,8.26
2023-02-13T11:39:46.560Z,8.25
2023-02-13T11:41:51.857Z,8.24
2023-02-13T11:44:01.373Z,8.23
2023-02-13T11:46:08.923Z,8.25
2023-02-13T11:48:22.436Z,8.24
2023-02-13T11:50:28.685Z,8.28
2023-02-13T11:52:35.088Z,8.43
2023-02-13T11:54:42.039Z,8.54
2023-02-13T11:57:08.327Z,8.64
2023-02-13T11:59:15.385Z,8.73
2023-02-13T12:01:29.816Z,8.86
2023-02-13T12:03:33.750Z,8.97
2023-02-13T12:05:38.095Z,9.08
2023-02-13T12:07:42.274Z,9.15
2023-02-13T12:09:49.148Z,9.22
2023-02-13T12:11:54.724Z,9.24
2023-02-13T12:13:58.874Z,9.28
2023-02-13T12:16:05.299Z,9.32
2023-02-13T12:18:17.757Z,9.36
2023-02-13T12:20:21.278Z,9.40
2023-02-13T12:22:34.650Z,9.45
2023-02-13T12:24:55.447Z,9.51
2023-02-13T12:27:07.457Z,9.54
2023-02-13T12:29:29.616Z,9.54
2023-02-13T12:31:55.541Z,9.54
2023-02-13T12:34:31.882Z,9.48
2023-02-13T12:36:48.442Z,9.50
2023-02-13T12:39:08.214Z,9.52
2023-02-13T12:41:23.952Z,9.56
2023-02-13T12:43:53.539Z,9.59
2023-02-13T12:46:05.758Z,9.62
2023-02-13T12:48:21.292Z,9.65
2023-02-13T12:50:55.331Z,9.72
2023-02-13T12:53:14.270Z,9.76
2023-02-13T12:55:37.641Z,9.83
2023-02-13T12:57:56.897Z,9.89
2023-02-13T13:00:18.551Z,9.91
2023-02-13T13:03:00.596Z,9.93
2023-02-13T13:05:12.667Z,9.94
2023-02-13T13:07:51.115Z,9.97
2023-02-13T13:10:17.174Z,9.94
2023-02-13T13:12:38.646Z,9.88
2023-02-13T13:14:51.030Z,9.85
2023-02-13T13:17:02.048Z,9.82
2023-02-13T13:19:13.293Z,9.81
2023-02-13T13:21:21.442Z,9.85
2023-02-13T13:23:31.334Z,9.86
2023-02-13T13:25:40.944Z,9.87
2023-02-13T13:27:47.045Z,9.87
2023-02-13T13:29:56.666Z,9.85
2023-02-13T13:32:04.678Z,9.85
2023-02-13T13:34:14.932Z,9.82
2023-02-13T13:36:29.079Z,9.82
2023-02-13T13:38:44.147Z,9.80
2023-02-13T13:40:55.364Z,9.78
2023-02-13T13:43:01.507Z,9.77
2023-02-13T13:45:22.522Z,9.77
2023-02-13T13:47:39.092Z,9.79
2023-02-13T13:49:52.094Z,9.84
2023-02-13T13:52:10.134Z,9.89
2023-02-13T13:54:36.716Z,9.95
2023-02-13T13:57:14.326Z,9.94
2023-02-13T13:59:19.133Z,9.92
2023-02-13T14:01:29.355Z,9.91
2023-02-13T14:03:37.506Z,9.90
2023-02-13T14:05:59.987Z,9.88
2023-02-13T14:08:04.858Z,9.87
2023-02-13T14:10:21.636Z,9.85
2023-02-13T14:12:39.572Z,9.87
2023-02-13T14:14:46.754Z,9.83
2023-02-13T14:16:50.415Z,9.81
2023-02-13T14:18:53.731Z,9.80
2023-02-13T14:21:00.089Z,9.80
2023-02-13T14:23:29.294Z,9.80
2023-02-13T14:25:32.843Z,9.80
2023-02-13T14:27:39.909Z,9.80
2023-02-13T14:29:49.594Z,9.81
2023-02-13T14:32:06.538Z,9.82
2023-02-13T14:34:20.413Z,9.82
2023-02-13T14:36:32.265Z,9.83
2023-02-13T14:38:36.853Z,9.87
2023-02-13T14:40:49.522Z,9.86
2023-02-13T14:42:57.793Z,9.87
2023-02-13T14:45:03.572Z,9.88
2023-02-13T14:47:21.060Z,9.90
2023-02-13T14:49:28.421Z,9.90
2023-02-13T14:51:37.260Z,9.89
2023-02-13T14:53:51.552Z,9.89
2023-02-13T14:56:03.668Z,9.86
2023-02-13T14:58:14.846Z,9.83
2023-02-13T15:00:23.485Z,9.80
2023-02-13T15:02:29.257Z,9.77
2023-02-13T15:04:40.704Z,9.72
2023-02-13T15:06:47.417Z,9.70
2023-02-13T15:08:54.286Z,9.67
2023-02-13T15:10:59.334Z,9.66
2023-02-13T15:13:06.520Z,9.66
2023-02-13T15:15:25.913Z,9.66
2023-02-13T15:17:32.991Z,9.69
2023-02-13T15:19:40.598Z,9.68
2023-02-13T15:21:50.614Z,9.67
2023-02-13T15:23:56.854Z,9.62
2023-02-13T15:26:02.510Z,9.58
2023-02-13T15:28:08.768Z,9.55
2023-02-13T15:30:24.376Z,9.52
2023-02-13T15:32:33.146Z,9.49
2023-02-13T15:34:40.909Z,9.45
2023-02-13T15:36:47.206Z,9.40
2023-02-13T15:38:51.530Z,9.34
2023-02-13T15:40:59.402Z,9.30
2023-02-13T15:45:45.642Z,9.28
2023-02-13T15:48:09.305Z,9.29
2023-02-13T15:50:19.893Z,9.32
2023-02-13T15:52:28.342Z,9.33
2023-02-13T15:54:33.394Z,9.35
2023-02-13T15:56:38.927Z,9.36
2023-02-13T15:58:42.374Z,9.36
2023-02-13T16:00:47.369Z,9.37
2023-02-13T16:02:52.061Z,9.41
2023-02-13T16:04:57.198Z,9.41
2023-02-13T16:07:02.023Z,9.42
2023-02-13T16:09:07.250Z,9.39
2023-02-13T16:11:19.755Z,9.35
2023-02-13T16:13:22.983Z,9.30
2023-02-13T16:15:30.528Z,9.26
2023-02-13T16:17:38.443Z,9.19
2023-02-13T16:19:53.465Z,9.14
2023-02-13T16:21:58.762Z,9.09
2023-02-13T16:24:05.826Z,9.04
2023-02-13T16:26:15.718Z,9.01
2023-02-13T16:28:22.473Z,8.94
2023-02-13T16:30:35.604Z,8.89
2023-02-13T16:32:41.869Z,8.85
2023-02-13T16:34:45.111Z,8.80
2023-02-13T16:36:48.407Z,8.78
2023-02-13T16:38:52.259Z,8.72
2023-02-13T16:40:57.204Z,8.68
2023-02-13T16:43:33.810Z,8.63
2023-02-13T16:45:37.383Z,8.61
2023-02-13T16:47:42.114Z,8.56
2023-02-13T16:49:56.071Z,8.54
2023-02-13T16:52:02.289Z,8.51
2023-02-13T16:54:15.464Z,8.45
2023-02-13T16:56:18.789Z,8.39
2023-02-13T16:58:28.629Z,8.35
2023-02-13T17:00:32.292Z,8.30
2023-02-13T17:02:37.227Z,8.28
2023-02-13T17:04:43.268Z,8.26
2023-02-13T17:06:46.580Z,8.22
2023-02-13T17:08:49.815Z,8.21
2023-02-13T17:11:03.982Z,8.17
2023-02-13T17:13:17.680Z,8.14
2023-02-13T17:15:22.728Z,8.11
2023-02-13T17:17:28.719Z,8.09
2023-02-13T17:19:32.046Z,8.07
2023-02-13T17:21:36.922Z,8.04
2023-02-13T17:23:40.403Z,8.01
2023-02-13T17:25:43.804Z,7.94
2023-02-13T17:27:47.155Z,7.90
2023-02-13T17:29:50.392Z,7.84
2023-02-13T17:31:57.631Z,7.82
2023-02-13T17:34:00.974Z,7.75
2023-02-13T17:36:04.480Z,7.73
2023-02-13T17:38:10.820Z,7.70
2023-02-13T17:40:18.359Z,7.70
2023-02-13T17:42:24.866Z,7.67
2023-02-13T17:44:28.144Z,7.65
2023-02-13T17:46:31.498Z,7.64
2023-02-13T17:48:35.107Z,7.60
2023-02-13T17:50:39.359Z,7.59
2023-02-13T17:52:43.376Z,7.55
2023-02-13T17:54:49.079Z,7.51
2023-02-13T17:56:52.514Z,7.45
2023-02-13T17:58:55.725Z,7.37
2023-02-13T18:00:59.318Z,7.33
2023-02-13T18:03:03.271Z,7.32
2023-02-13T18:05:17.709Z,7.30
2023-02-13T18:07:22.425Z,7.31
2023-02-13T18:09:25.815Z,7.32
2023-02-13T18:11:30.445Z,7.35
2023-02-13T18:13:33.704Z,7.35
2023-02-13T18:15:39.942Z,7.33
2023-02-13T18:17:43.967Z,7.31
2023-02-13T18:19:47.736Z,7.27
2023-02-13T18:21:51.045Z,7.26
2023-02-13T18:23:54.600Z,7.24
2023-02-13T18:26:05.814Z,7.25
2023-02-13T18:28:10.168Z,7.20
2023-02-13T18:30:15.706Z,7.19
2023-02-13T18:32:19.074Z,7.17
2023-02-13T18:34:23.617Z,7.12
2023-02-13T18:36:26.801Z,7.08
2023-02-13T18:38:30.639Z,7.05
2023-02-13T18:40:33.808Z,7.04
2023-02-13T18:42:37.184Z,7.02
2023-02-13T18:44:42.275Z,7.00
2023-02-13T18:46:46.150Z,7.00
2023-02-13T18:48:49.364Z,7.01
2023-02-13T18:50:52.884Z,7.03
2023-02-13T18:52:56.176Z,7.06
2023-02-13T18:54:59.451Z,7.06
2023-02-13T18:57:02.648Z,7.05
2023-02-13T18:59:06.091Z,7.01
2023-02-13T19:01:14.144Z,7.01
2023-02-13T19:03:18.336Z,7.01
2023-02-13T19:05:22.741Z,6.97
2023-02-13T19:07:26.032Z,6.94
2023-02-13T19:09:29.427Z,6.94
2023-02-13T19:11:34.409Z,6.92
2023-02-13T19:13:38.071Z,6.92
2023-02-13T19:15:41.417Z,6.92
2023-02-13T19:17:46.425Z,6.93
2023-02-13T19:19:50.520Z,6.92
2023-02-13T19:21:53.748Z,6.93
2023-02-13T19:23:57.053Z,6.92
2023-02-13T19:26:00.585Z,6.92
2023-02-13T19:28:03.858Z,6.90
2023-02-13T19:30:09.616Z,6.91
2023-02-13T19:32:13.097Z,6.90
2023-02-13T19:34:17.891Z,6.90
2023-02-13T19:36:23.202Z,6.91
2023-02-13T19:38:26.683Z,6.91
2023-02-13T19:40:29.945Z,6.91
2023-02-13T19:42:33.266Z,6.91
2023-02-13T19:44:36.479Z,6.90
2023-02-13T19:46:40.169Z,6.85
2023-02-13T19:48:43.822Z,6.81
2023-02-13T19:50:48.473Z,6.79
2023-02-13T19:52:53.446Z,6.74
2023-02-13T19:54:56.727Z,6.69
2023-02-13T19:57:01.630Z,6.65
2023-02-13T19:59:05.086Z,6.61
2023-02-13T20:01:09.555Z,6.56
2023-02-13T20:03:12.837Z,6.54
2023-02-13T20:05:16.266Z,6.54
2023-02-13T20:07:20.854Z,6.55
2023-02-13T20:09:24.185Z,6.52
2023-02-13T20:11:27.780Z,6.49
2023-02-13T20:13:32.103Z,6.45
2023-02-13T20:15:35.467Z,6.41
2023-02-13T20:17:39.399Z,6.37
2023-02-13T20:19:42.607Z,6.32
2023-02-13T20:21:46.065Z,6.28
2023-02-13T20:23:52.405Z,6.21
2023-02-13T20:25:55.605Z,6.12
2023-02-13T20:27:58.980Z,6.10
2023-02-13T20:30:07.818Z,6.07
2023-02-13T20:32:11.520Z,6.06
2023-02-13T20:34:14.872Z,6.06
2023-02-13T20:36:20.246Z,6.06
2023-02-13T20:38:24.179Z,6.05
2023-02-13T20:40:28.942Z,6.05
2023-02-13T20:42:33.963Z,6.00
2023-02-13T20:44:37.235Z,5.94
2023-02-13T20:46:41.601Z,5.91
2023-02-13T20:48:46.681Z,5.92
2023-02-13T20:50:59.519Z,5.92
2023-02-13T20:53:03.524Z,5.89
2023-02-13T20:55:11.468Z,5.86
2023-02-13T20:57:16.971Z,5.92
2023-02-13T20:59:35.211Z,5.99
2023-02-13T21:01:41.699Z,6.05
2023-02-13T21:03:48.006Z,6.14
2023-02-13T21:05:51.970Z,6.24
2023-02-13T21:07:55.244Z,6.34
2023-02-13T21:09:58.481Z,6.42
2023-02-13T21:12:01.760Z,6.46
2023-02-13T21:14:07.168Z,6.52
2023-02-13T21:16:14.428Z,6.54
2023-02-13T21:18:19.795Z,6.51
2023-02-13T21:20:25.158Z,6.49
2023-02-13T21:22:28.396Z,6.49
2023-02-13T21:24:31.646Z,6.51
2023-02-13T21:26:35.306Z,6.52
2023-02-13T21:28:39.266Z,6.57
2023-02-13T21:30:44.351Z,6.59
2023-02-13T21:32:47.604Z,6.63
2023-02-13T21:34:50.973Z,6.65
2023-02-13T21:36:54.231Z,6.64
2023-02-13T21:38:58.094Z,6.63
2023-02-13T21:41:06.298Z,6.62
2023-02-13T21:43:09.676Z,6.62
2023-02-13T21:45:13.529Z,6.64
2023-02-13T21:47:18.613Z,6.66
2023-02-13T21:49:21.911Z,6.67
2023-02-13T21:51:26.790Z,6.69
2023-02-13T21:53:32.511Z,6.70
2023-02-13T21:55:35.924Z,6.68
2023-02-13T21:57:40.303Z,6.68
2023-02-13T21:59:43.714Z,6.69
2023-02-13T22:01:50.234Z,6.68
2023-02-13T22:03:56.416Z,6.67
2023-02-13T22:06:01.205Z,6.65
2023-02-13T22:08:13.916Z,6.65
2023-02-13T22:10:17.359Z,6.63
2023-02-13T22:12:20.706Z,6.64
2023-02-13T22:14:24.020Z,6.63
2023-02-13T22:16:27.429Z,6.63
2023-02-13T22:18:33.887Z,6.63
2023-02-13T22:20:39.032Z,6.60
2023-02-13T22:22:42.039Z,6.58
2023-02-13T22:24:45.303Z,6.57
2023-02-13T22:26:48.791Z,6.57
2023-02-13T22:28:52.938Z,6.58
2023-02-13T22:30:56.400Z,6.59
2023-02-13T22:32:59.775Z,6.62
2023-02-13T22:35:03.100Z,6.62
2023-02-13T22:37:08.552Z,6.61
2023-02-13T22:39:12.834Z,6.60
2023-02-13T22:41:17.734Z,6.59
2023-02-13T22:43:21.044Z,6.56
2023-02-13T22:45:24.297Z,6.55
2023-02-13T22:47:28.822Z,6.45
2023-02-13T22:49:33.094Z,6.39
2023-02-13T22:51:37.960Z,6.38
2023-02-13T22:53:42.750Z,6.38
2023-02-13T22:55:46.050Z,6.46
2023-02-13T22:57:53.999Z,6.53
2023-02-13T22:59:57.257Z,6.60
2023-02-13T23:02:00.571Z,6.65
2023-02-13T23:04:03.989Z,6.70
2023-02-13T23:06:09.212Z,6.72
2023-02-13T23:08:12.802Z,6.77
2023-02-13T23:10:19.045Z,6.83
2023-02-13T23:12:36.622Z,6.84
2023-02-13T23:14:39.877Z,6.86
2023-02-13T23:17:01.347Z,6.83
2023-02-13T23:19:04.684Z,6.81
2023-02-13T23:21:09.592Z,6.81
2023-02-13T23:23:13.096Z,6.80
2023-02-13T23:25:18.463Z,6.78
2023-02-13T23:27:21.831Z,6.74
2023-02-13T23:29:25.418Z,6.73
2023-02-13T23:31:28.937Z,6.71
2023-02-13T23:33:32.343Z,6.76
2023-02-13T23:35:35.620Z,6.80
2023-02-13T23:37:39.078Z,6.84
2023-02-13T23:39:42.325Z,6.85
2023-02-13T23:41:47.000Z,6.82
2023-02-13T23:43:50.258Z,6.80
2023-02-13T23:45:53.547Z,6.80
2023-02-13T23:47:56.928Z,6.79
2023-02-13T23:50:00.167Z,6.80
2023-02-13T23:52:03.358Z,6.77
2023-02-13T23:54:06.710Z,6.76
2023-02-13T23:56:10.035Z,6.77
2023-02-13T23:58:15.689Z,6.76
